Date,TemperatureHighF,TemperatureAvgF,TemperatureLowF,DewpointHighF,DewpointAvgF,DewpointLowF,HumidityHigh,HumidityAvg,HumidityLow,PressureMaxIn,PressureMinIn,WindSpeedMaxMPH,WindSpeedAvgMPH,GustSpeedMaxMPH,PrecipitationSumIn
2013-1-1,50,48,44,49,42,32,98,83,54,30.15,29.97,2,0,7,0.35
2013-1-2,50,48,43,49,43,36,98,85,73,30.18,29.93,5,0,12,0.09
2013-1-3,43,41,41,37,36,35,83,80,77,30.21,30.15,0,0,1,0.00
2013-1-4,51,41,29,35,29,23,93,64,40,30.38,30.21,8,1,14,0.00
2013-1-5,48,39,30,34,28,24,89,67,43,30.43,30.25,2,0,6,0.00
2013-1-6,54,46,42,43,38,34,88,73,59,30.27,30.06,9,1,18,0.02
2013-1-7,50,40,31,36,32,30,95,76,49,30.46,30.23,7,0,9,0.00
2013-1-8,51,41,32,43,37,31,97,86,68,30.50,30.40,2,0,4,0.00
2013-1-9,64,51,40,55,48,38,98,87,71,30.47,30.39,3,0,7,0.00
2013-1-10,66,55,48,53,47,40,98,76,52,30.52,30.39,3,0,8,0.00
2013-1-11,54,48,46,49,46,43,99,95,67,30.39,30.19,3,0,7,0.17
2013-1-12,66,56,48,63,54,47,100,96,88,30.19,30.10,2,0,5,0.00
2013-1-13,71,62,56,64,59,55,99,93,77,30.14,30.05,3,0,12,0.01
2013-1-14,64,62,61,64,62,60,99,97,94,30.13,30.06,0,0,4,0.33
2013-1-15,62,48,42,61,47,42,99,98,97,30.21,30.09,12,1,21,0.23
2013-1-16,50,46,42,50,45,42,99,98,97,30.10,29.99,6,0,9,0.19
2013-1-17,51,46,35,51,45,34,99,98,96,30.21,29.85,14,2,30,2.61
2013-1-18,46,38,32,36,30,25,98,75,46,30.55,30.20,7,1,14,0.00
2013-1-19,32,29,29,29,28,27,95,94,89,30.53,30.50,0,0,0,0.00
2013-1-20,29,29,29,28,28,28,95,95,95,30.50,30.50,0,0,0,0.00
2013-1-21,29,29,29,28,28,28,95,95,95,30.50,30.50,0,0,0,0.00
2013-1-22,29,29,29,28,28,28,95,95,95,30.50,30.50,0,0,0,0.00
2013-1-23,29,29,29,28,28,28,95,95,95,30.50,30.50,0,0,0,0.00
2013-1-24,30,29,27,28,25,9,95,89,44,30.54,30.48,1,0,5,0.00
2013-1-25,28,26,23,26,18,9,93,73,48,30.55,30.17,2,0,7,0.01
2013-1-26,44,34,28,36,31,26,97,89,68,30.41,30.15,2,0,5,0.02
2013-1-27,42,35,28,32,29,25,94,77,61,30.62,30.41,3,0,8,0.00
2013-1-28,50,43,37,46,38,32,93,83,74,30.51,30.27,1,0,12,0.02
2013-1-29,71,56,42,60,51,41,99,87,66,30.28,30.05,2,0,12,0.00
2013-1-30,72,65,53,63,61,50,97,88,71,30.05,29.41,7,1,32,1.06
2013-1-31,52,43,35,50,30,22,91,62,40,30.04,29.50,8,2,27,0.02
2013-2-1,42,36,28,31,18,8,66,48,30,30.41,29.93,12,3,26,0.00
2013-2-2,44,35,25,36,20,13,82,55,35,30.43,30.08,7,0,20,0.00
2013-2-3,50,42,35,36,31,26,89,65,41,30.07,29.89,10,2,23,0.00
2013-2-4,50,41,31,31,27,23,79,59,43,30.17,30.02,2,0,6,0.00
2013-2-5,61,47,39,44,36,31,85,66,44,30.02,29.91,5,0,12,0.00
2013-2-6,61,47,36,40,33,23,97,64,25,30.25,30.00,6,1,8,0.00
2013-2-7,43,41,39,40,35,29,96,82,61,30.32,30.05,6,1,15,0.73
2013-2-8,58,46,39,48,39,30,97,77,47,30.13,29.89,9,3,17,0.03
2013-2-9,56,42,32,33,27,20,85,59,28,30.37,30.13,5,1,9,0.00
2013-2-10,56,44,34,44,32,26,96,68,32,30.48,30.20,1,0,6,0.12
2013-2-11,57,50,44,56,49,42,99,97,95,30.20,29.98,5,0,10,0.12
2013-2-12,58,51,44,51,40,28,96,68,36,30.13,29.91,5,0,7,0.00
2013-2-13,50,46,43,46,43,36,97,91,71,29.96,29.67,6,0,12,0.09
2013-2-14,52,41,32,37,34,30,97,79,53,30.09,29.88,2,0,8,0.00
2013-2-15,61,46,33,41,37,32,98,72,37,30.13,29.95,7,1,15,0.01
2013-2-16,47,37,31,39,31,23,95,78,65,30.03,29.85,12,1,18,0.00
2013-2-17,41,33,26,24,16,11,76,51,31,30.29,30.03,8,1,21,0.05
2013-2-18,54,39,26,35,25,16,79,59,40,30.42,30.23,2,0,9,0.00
2013-2-19,49,42,37,45,36,22,97,80,41,30.24,29.91,5,0,13,0.21
2013-2-20,54,43,31,30,19,14,70,39,23,30.15,30.04,6,1,20,0.00
2013-2-21,57,42,28,39,24,18,92,52,26,30.32,30.12,5,0,5,0.05
2013-2-22,42,38,37,40,37,36,97,95,90,30.35,30.15,7,1,7,0.41
2013-2-23,37,37,36,37,36,36,98,97,97,30.18,30.02,12,1,12,0.15
2013-2-24,63,46,37,43,38,30,98,79,29,30.05,29.88,12,0,12,0.00
2013-2-25,42,40,38,34,29,27,81,65,58,30.22,30.04,8,1,8,0.00
2013-2-26,40,40,39,40,33,29,97,79,66,30.15,29.65,12,1,12,1.33
2013-2-27,54,43,40,42,40,38,98,90,59,29.77,29.68,10,1,10,0.00
2013-2-28,47,43,36,38,31,26,83,64,46,29.93,29.74,17,3,17,0.00
2013-3-1,46,40,34,34,31,29,85,69,55,29.96,29.90,12,2,12,0.00
2013-3-2,45,40,35,38,34,29,92,78,68,29.94,29.87,14,1,14,0.03
2013-3-3,42,35,32,36,24,21,77,65,46,30.05,29.87,15,4,15,0.00
2013-3-4,55,40,30,33,23,18,68,52,27,30.18,30.04,12,2,12,0.00
2013-3-5,48,45,39,46,38,27,96,80,51,30.10,29.64,4,0,4,0.53
2013-3-6,45,40,36,42,30,24,96,66,50,30.15,29.64,16,6,16,0.01
2013-3-7,53,40,36,34,30,27,76,68,44,30.31,30.15,13,3,13,0.00
2013-3-8,56,44,36,32,28,26,70,57,32,30.34,30.23,14,2,14,0.00
2013-3-9,49,49,49,32,32,32,51,51,51,30.29,30.29,0,0,0,0.00
2013-3-10,66,52,41,43,40,32,99,65,35,30.32,30.18,12,1,12,0.00
2013-3-11,67,55,43,56,45,33,94,69,58,30.22,29.87,6,0,6,0.09
2013-3-12,63,58,48,57,51,35,99,81,40,30.00,29.75,9,2,9,0.47
2013-3-13,48,45,38,38,31,28,84,59,50,30.09,30.00,4,0,4,0.00
2013-3-14,48,48,48,30,30,30,50,50,50,30.09,30.09,0,0,0,0.00
2013-3-15,48,48,48,30,30,30,50,50,50,30.09,30.09,0,0,0,0.00
2013-3-16,48,48,48,30,30,30,50,50,50,30.09,30.09,0,0,0,0.00
2013-3-17,48,48,48,30,30,30,50,50,50,30.09,30.09,0,0,0,0.00
2013-3-18,48,46,42,41,33,30,97,62,50,30.09,29.97,4,0,4,0.10
2013-3-19,63,49,42,41,34,19,96,67,20,30.08,29.94,21,3,21,0.00
2013-3-20,57,49,44,33,21,15,59,33,23,30.14,29.80,15,4,15,0.00
2013-3-21,48,39,33,32,18,11,59,43,31,30.02,29.81,18,8,18,0.00
2013-3-22,33,26,25,20,17,14,70,67,50,30.10,30.01,12,0,12,0.00
2013-3-23,56,46,25,42,36,17,86,68,50,30.10,29.92,7,1,7,0.00
2013-3-24,46,42,38,43,40,37,96,93,85,29.97,29.57,13,3,13,0.73
2013-3-25,42,40,38,38,33,30,97,77,63,29.67,29.58,24,3,24,0.05
2013-3-26,42,36,36,30,27,27,70,68,64,29.94,29.66,4,0,4,0.00
2013-3-27,50,41,36,29,26,23,69,57,36,30.29,29.93,17,4,17,0.00
2013-3-28,55,42,30,33,27,23,85,57,31,30.34,30.22,13,3,13,0.00
2013-3-29,61,47,33,39,32,27,99,61,30,30.38,30.21,13,2,13,0.00
2013-3-30,64,54,46,46,42,36,93,66,45,30.25,30.07,6,1,6,0.00
2013-3-31,66,56,50,61,53,46,99,90,70,30.07,29.80,12,1,12,0.40
2013-4-1,69,60,50,54,47,39,98,69,35,29.93,29.84,23,4,23,0.03
2013-4-2,63,52,42,42,34,26,86,51,28,30.17,29.93,15,2,15,0.00
2013-4-3,58,51,42,36,27,21,58,40,27,30.31,30.15,14,1,14,0.00
2013-4-4,49,42,37,39,33,21,96,73,36,30.32,30.01,21,4,21,0.90
2013-4-5,65,50,38,48,42,36,97,78,36,30.07,29.93,15,4,15,0.00
2013-4-6,68,54,41,44,40,36,97,63,33,30.26,30.07,9,1,9,0.00
2013-4-7,71,57,44,52,45,38,89,68,42,30.27,30.11,12,1,12,0.00
2013-4-8,78,64,52,59,54,49,96,73,47,30.17,30.05,12,1,12,0.00
2013-4-9,83,69,56,62,58,53,93,69,45,30.20,30.07,6,1,7,0.00
2013-4-10,70,67,62,62,60,58,87,79,74,30.10,30.06,1,0,1,0.00
2013-4-11,70,70,70,62,62,62,76,76,76,30.10,30.10,0,0,0,0.00
2013-4-12,70,69,62,62,59,41,76,72,35,30.10,29.71,11,1,11,0.00
2013-4-13,76,62,47,49,44,37,93,56,25,30.02,29.81,10,1,10,0.00
2013-4-14,77,63,50,57,48,42,94,61,35,30.10,29.99,10,1,10,0.00
2013-4-15,64,60,57,61,58,54,98,94,74,30.21,29.98,9,2,9,0.13
2013-4-16,78,66,58,63,60,56,97,84,56,30.30,30.18,7,0,7,0.00
2013-4-17,78,69,59,65,61,58,98,79,54,30.24,30.12,12,2,12,0.00
2013-4-18,80,70,65,64,63,61,94,79,56,30.16,29.99,4,0,0,0.00
2013-4-19,77,67,57,69,64,54,96,88,72,30.00,29.73,18,2,18,0.22
2013-4-20,64,54,47,54,39,33,92,58,32,30.29,29.90,12,4,12,0.03
2013-4-21,62,52,44,46,41,35,94,67,48,30.48,30.28,12,3,12,0.00
2013-4-22,62,52,42,44,38,33,84,62,34,30.47,30.25,20,2,20,0.00
2013-4-23,70,57,50,55,48,38,89,73,56,30.30,30.12,13,2,13,0.00
2013-4-24,73,62,53,60,56,52,96,81,59,30.14,29.99,10,1,10,0.00
2013-4-25,70,59,50,60,45,35,90,63,29,30.29,30.04,17,4,17,0.00
2013-4-26,70,58,46,50,42,36,84,58,32,30.46,30.30,0,0,0,0.00
2013-4-27,61,57,56,57,53,48,96,86,67,30.37,30.26,0,0,0,0.02
2013-4-28,57,56,56,56,55,55,98,97,95,30.26,30.06,10,1,10,0.60
2013-4-29,72,61,56,64,59,55,99,93,70,30.07,29.95,5,0,5,0.23
2013-4-30,68,62,58,62,59,56,99,91,76,30.19,30.00,12,1,12,0.01
2013-5-1,64,60,55,59,57,54,97,92,80,30.31,30.18,12,2,12,0.01
2013-5-2,62,59,56,58,57,55,97,92,86,30.33,30.25,10,3,10,0.00
2013-5-3,66,60,54,57,54,47,95,80,64,30.25,30.14,12,4,12,0.01
2013-5-4,62,55,50,53,49,45,90,81,67,30.16,30.02,13,6,13,0.01
2013-5-5,59,54,50,58,52,48,98,92,84,30.08,29.89,14,6,14,0.00
2013-5-6,70,61,53,62,56,50,99,85,50,29.91,29.82,9,2,9,0.06
2013-5-7,70,57,50,55,52,47,98,85,47,29.97,29.86,14,1,14,0.08
2013-5-8,73,62,52,63,57,51,99,86,61,30.02,29.93,6,0,6,0.01
2013-5-9,80,66,54,65,58,53,99,78,47,30.09,30.01,7,1,7,0.00
2013-5-10,82,70,58,66,62,57,99,79,52,30.07,29.94,8,1,8,0.00
2013-5-11,78,70,63,66,63,60,98,80,60,29.96,29.78,15,1,15,0.00
2013-5-12,71,63,55,63,50,40,99,65,38,30.07,29.83,14,4,14,0.01
2013-5-13,67,58,46,46,39,33,91,53,28,30.20,30.06,12,3,13,0.00
2013-5-14,56,45,44,46,42,41,93,90,58,30.26,30.19,1,0,1,0.00
2013-5-15,44,44,44,42,42,42,92,92,92,30.26,30.26,0,0,0,0.00
2013-5-16,44,44,44,42,42,42,92,92,92,30.26,30.26,0,0,0,0.00
2013-5-17,44,44,44,42,42,42,92,92,92,30.26,30.26,0,0,0,0.00
2013-5-18,44,44,44,42,42,42,92,92,92,30.26,30.26,0,0,0,0.00
2013-5-19,44,44,44,42,42,42,92,92,92,30.26,30.26,0,0,0,0.00
2013-5-20,44,44,44,42,42,42,92,92,92,30.26,30.26,0,0,0,0.00
2013-5-21,86,59,44,73,54,-100,92,84,61,30.26,29.92,4,-2,4,0.01
2013-5-22,85,74,68,70,68,67,95,83,59,30.01,29.89,1,0,1,0.00
2013-5-23,85,82,65,72,69,63,93,65,59,29.90,29.81,5,0,10,0.00
2013-5-24,72,66,61,64,52,40,96,65,33,30.21,29.87,12,2,22,0.00
2013-5-25,79,64,50,53,46,42,85,55,32,30.32,30.15,6,0,12,0.00
2013-5-26,76,64,57,61,50,42,87,61,44,30.30,30.17,3,0,7,0.00
2013-5-27,83,68,56,66,59,55,97,75,49,30.28,30.14,1,0,5,0.00
2013-5-28,84,74,65,68,65,61,91,75,54,30.23,30.13,1,0,9,0.00
2013-5-29,85,75,66,70,65,62,89,73,51,30.23,30.14,1,0,8,0.00
2013-5-30,86,74,66,68,65,63,93,75,47,30.27,30.16,1,0,6,0.00
2013-5-31,87,77,68,72,68,64,94,75,51,30.22,30.09,2,0,8,0.00
2013-6-1,87,75,71,70,68,67,91,81,55,30.12,30.00,0,0,5,0.00
2013-6-2,82,75,69,72,69,67,97,83,71,30.03,29.89,6,0,15,0.00
2013-6-3,76,72,68,71,69,67,99,90,79,29.92,29.88,3,1,6,0.00
2013-6-4,80,73,66,72,68,65,98,86,71,30.08,29.90,5,0,12,0.00
2013-6-5,78,72,68,71,68,66,97,90,80,30.11,29.98,5,0,9,0.00
2013-6-6,77,72,69,74,71,68,99,97,88,29.99,29.80,0,0,5,0.00
2013-6-7,83,72,68,74,70,67,99,92,73,29.84,29.64,7,1,14,0.00
2013-6-8,84,73,66,73,68,63,99,86,63,30.08,29.82,8,0,13,0.00
2013-6-9,87,75,69,74,71,67,98,87,60,30.14,30.03,0,0,6,0.00
2013-6-10,81,74,71,73,71,68,98,90,75,30.08,29.88,3,0,12,0.00
2013-6-11,87,76,69,73,68,65,98,79,50,29.99,29.92,3,0,10,0.00
2013-6-12,92,79,67,80,72,66,99,82,60,30.00,29.86,2,0,9,0.00
2013-6-13,92,80,72,76,74,67,96,84,55,29.87,29.66,3,0,12,0.00
2013-6-14,82,74,66,68,61,57,86,64,46,30.03,29.75,8,2,18,0.00
2013-6-15,84,73,63,69,64,60,97,76,53,30.14,30.03,1,0,6,0.00
2013-6-16,86,77,68,72,68,64,88,74,55,30.13,30.00,3,0,13,0.00
2013-6-17,86,75,72,74,71,69,98,87,65,30.03,29.93,7,0,17,0.00
2013-6-18,77,72,70,76,71,70,99,96,84,29.96,29.80,0,0,4,0.00
2013-6-19,77,77,72,72,72,68,90,84,84,30.11,29.80,0,0,0,0.00
2013-6-20,82,74,67,70,68,66,97,83,63,30.23,30.11,5,0,7,0.00
2013-6-21,83,73,64,69,65,62,95,77,57,30.27,30.17,6,0,10,0.00
2013-6-22,85,74,64,71,67,62,93,80,59,30.23,30.11,7,1,12,0.00
2013-6-23,87,78,70,74,71,68,98,81,58,30.20,30.11,2,0,6,0.00
2013-6-24,88,77,71,77,73,69,97,88,65,30.20,30.08,2,0,7,0.00
2013-6-25,90,78,72,78,73,70,98,85,59,30.13,29.98,1,0,7,0.00
2013-6-26,90,77,71,77,72,66,97,85,59,30.04,29.89,2,0,22,0.00
2013-6-27,90,78,73,78,73,70,96,87,65,29.93,29.71,7,0,16,0.00
2013-6-28,84,75,72,76,72,70,98,92,74,29.76,29.59,1,0,2,0.00
2013-6-29,86,79,71,76,73,70,100,84,61,29.67,29.61,1,0,8,0.00
2013-6-30,84,75,68,76,71,67,97,90,71,29.84,29.66,1,0,1,0.00
2013-7-1,82,74,67,75,71,66,99,91,74,29.96,29.82,1,0,5,0.00
2013-7-2,78,74,72,74,72,71,99,96,86,30.14,29.96,1,0,7,0.01
2013-7-3,78,74,72,76,74,72,100,98,91,30.21,30.11,0,0,4,0.00
2013-7-4,86,76,71,77,74,70,100,94,70,30.25,30.14,1,0,8,0.01
2013-7-5,84,75,71,77,74,71,100,96,80,30.25,30.18,2,0,8,0.00
2013-7-6,85,76,72,78,74,72,100,94,77,30.24,30.10,1,0,5,0.01
2013-7-7,84,77,73,78,75,73,99,92,78,30.17,30.05,1,0,8,0.00
2013-7-8,87,79,73,77,74,72,98,87,64,30.19,30.09,3,0,6,0.01
2013-7-9,89,80,73,79,75,72,97,86,65,30.15,30.04,3,0,13,0.00
2013-7-10,87,77,72,78,74,71,98,90,71,30.11,29.93,0,0,12,0.00
2013-7-11,78,74,71,76,73,69,99,97,86,29.96,29.86,5,0,20,0.00
2013-7-12,81,75,70,74,71,69,99,90,75,30.01,29.87,6,0,9,0.00
2013-7-13,79,74,70,75,71,68,97,92,83,30.12,30.01,5,0,10,0.00
2013-7-14,87,78,73,77,74,72,99,89,68,30.27,30.10,2,0,9,0.00
2013-7-15,87,78,71,76,73,70,99,86,66,30.32,30.24,6,0,8,0.01
2013-7-16,92,80,72,79,74,71,98,84,53,30.30,30.20,2,0,5,0.00
2013-7-17,90,78,72,81,74,70,97,88,67,30.23,30.12,5,0,7,0.00
2013-7-18,90,80,72,80,75,72,99,87,60,30.16,30.05,6,0,0,0.00
2013-7-19,90,81,74,79,76,73,98,85,66,30.10,29.97,2,0,0,0.01
2013-7-20,86,78,73,78,75,73,98,90,75,30.02,29.91,2,0,0,0.00
2013-7-21,88,77,72,78,74,71,99,92,70,30.01,29.91,3,0,0,0.00
2013-7-22,86,78,72,77,74,71,98,88,74,29.98,29.83,1,0,0,0.00
2013-7-23,90,80,73,76,73,69,96,80,53,29.84,29.75,4,0,0,0.00
2013-7-24,88,79,72,80,74,69,97,83,63,29.86,29.73,9,0,0,0.00
2013-7-25,83,75,68,74,70,66,97,86,65,30.02,29.82,5,0,0,0.00
2013-7-26,82,73,69,72,70,68,98,90,69,30.11,30.02,0,0,0,0.00